createdAt,value
2023-01-23T00:01:33.840Z,102084.81
2023-01-23T00:04:01.676Z,102112.59
2023-01-23T00:06:29.304Z,102112.22
2023-01-23T00:08:57.450Z,102106.66
2023-01-23T00:11:27.089Z,102118.69
2023-01-23T00:13:54.809Z,102121.84
2023-01-23T00:16:24.411Z,102114.56
2023-01-23T00:18:52.800Z,102115.78
2023-01-23T00:21:26.175Z,102113.34
2023-01-23T00:23:55.997Z,102125.91
2023-01-23T00:26:25.748Z,102129.94
2023-01-23T00:28:54.142Z,102105.16
2023-01-23T00:31:27.556Z,102101.13
2023-01-23T00:33:56.132Z,102116.47
2023-01-23T00:36:24.656Z,102115.78
2023-01-23T00:38:51.849Z,102122.91
2023-01-23T00:41:19.138Z,102097.97
2023-01-23T00:43:48.420Z,102114.81
2023-01-23T00:46:20.228Z,102132.94
2023-01-23T00:48:47.899Z,102126.97
2023-01-23T00:51:15.634Z,102131.84
2023-01-23T00:53:43.169Z,102125.72
2023-01-23T00:56:10.540Z,102121.31
2023-01-23T00:58:37.823Z,102121.31
2023-01-23T01:01:05.176Z,102128.50
2023-01-23T01:03:32.955Z,102129.31
2023-01-23T01:06:01.938Z,102125.22
2023-01-23T01:08:29.630Z,102125.19
2023-01-23T01:10:58.217Z,102123.50
2023-01-23T01:13:25.656Z,102124.69
2023-01-23T01:15:54.390Z,102127.09
2023-01-23T01:18:22.834Z,102127.88
2023-01-23T01:20:50.509Z,102129.84
2023-01-23T01:23:18.175Z,102129.06
2023-01-23T01:25:45.921Z,102125.09
2023-01-23T01:28:13.978Z,102133.03
2023-01-23T01:30:42.135Z,102127.00
2023-01-23T01:33:11.275Z,102133.00
2023-01-23T01:35:41.468Z,102106.88
2023-01-23T01:38:09.480Z,102128.16
2023-01-23T01:40:37.964Z,102134.63
2023-01-23T01:43:09.299Z,102129.41
2023-01-23T01:46:10.388Z,102132.19
2023-01-23T01:49:05.915Z,102119.22
2023-01-23T01:51:59.979Z,102126.84
2023-01-23T01:54:41.944Z,102130.50
2023-01-23T01:57:16.512Z,102123.41
2023-01-23T01:59:57.104Z,102145.13
2023-01-23T02:02:27.472Z,102123.41
2023-01-23T02:05:02.158Z,102147.53
2023-01-23T02:07:49.521Z,102151.56
2023-01-23T02:10:17.400Z,102149.41
2023-01-23T02:12:48.295Z,102160.50
2023-01-23T02:15:16.982Z,102156.66
2023-01-23T02:17:45.491Z,102166.75
2023-01-23T02:20:27.633Z,102162.19
2023-01-23T02:23:06.933Z,102156.06
2023-01-23T02:25:43.437Z,102158.41
2023-01-23T02:28:13.877Z,102152.38
2023-01-23T02:30:43.311Z,102152.75
2023-01-23T02:33:12.791Z,102154.34
2023-01-23T02:35:40.298Z,102159.91
2023-01-23T02:38:11.019Z,102154.25
2023-01-23T02:40:41.621Z,102154.66
2023-01-23T02:43:16.070Z,102154.22
2023-01-23T02:45:50.434Z,102140.63
2023-01-23T02:48:17.628Z,102141.78
2023-01-23T02:50:46.523Z,102146.16
2023-01-23T02:53:14.143Z,102158.31
2023-01-23T02:55:45.139Z,102172.38
2023-01-23T02:58:31.599Z,102148.22
2023-01-23T03:00:58.855Z,102137.75
2023-01-23T03:03:29.309Z,102162.28
2023-01-23T03:05:58.032Z,102173.53
2023-01-23T03:08:33.608Z,102143.72
2023-01-23T03:11:02.183Z,102167.47
2023-01-23T03:13:29.850Z,102180.88
2023-01-23T03:16:00.174Z,102180.09
2023-01-23T03:18:31.521Z,102176.47
2023-01-23T03:21:05.161Z,102179.38
2023-01-23T03:23:32.728Z,102193.81
2023-01-23T03:25:59.788Z,102185.72
2023-01-23T03:28:48.812Z,102184.94
2023-01-23T03:31:16.791Z,102184.16
2023-01-23T03:33:45.428Z,102180.97
2023-01-23T03:36:14.075Z,102181.72
2023-01-23T03:39:02.048Z,102201.16
2023-01-23T03:41:30.243Z,102185.88
2023-01-23T03:44:02.542Z,102168.66
2023-01-23T03:46:29.869Z,102175.47
2023-01-23T03:48:57.021Z,102182.75
2023-01-23T03:51:24.777Z,102179.91
2023-01-23T03:53:52.283Z,102179.53
2023-01-23T03:56:20.085Z,102176.25
2023-01-23T03:58:47.331Z,102173.38
2023-01-23T04:01:14.767Z,102185.81
2023-01-23T04:03:43.833Z,102172.13
2023-01-23T04:06:11.404Z,102180.16
2023-01-23T04:08:39.197Z,102191.16
2023-01-23T04:11:09.368Z,102193.94
2023-01-23T04:13:37.421Z,102187.44
2023-01-23T04:16:05.928Z,102188.59
2023-01-23T04:18:34.398Z,102193.09
2023-01-23T04:21:01.556Z,102190.66
2023-01-23T04:23:30.257Z,102184.59
2023-01-23T04:25:59.794Z,102177.41
2023-01-23T04:28:27.351Z,102184.34
2023-01-23T04:30:56.065Z,102187.16
2023-01-23T04:33:30.554Z,102199.75
2023-01-23T04:36:04.655Z,102202.59
2023-01-23T04:38:32.637Z,102206.56
2023-01-23T04:41:26.320Z,102190.50
2023-01-23T04:44:20.506Z,102199.81
2023-01-23T04:47:06.137Z,102207.97
2023-01-23T04:49:34.270Z,102209.56
2023-01-23T04:52:01.751Z,102189.81
2023-01-23T04:54:30.790Z,102210.72
2023-01-23T04:57:00.079Z,102209.50
2023-01-23T04:59:27.519Z,102212.41
2023-01-23T05:01:54.731Z,102227.31
2023-01-23T05:04:22.437Z,102235.75
2023-01-23T05:06:49.658Z,102237.78
2023-01-23T05:09:17.075Z,102228.44
2023-01-23T05:11:50.641Z,102221.72
2023-01-23T05:14:18.560Z,102245.88
2023-01-23T05:16:48.091Z,102253.56
2023-01-23T05:19:19.800Z,102247.50
2023-01-23T05:21:47.225Z,102232.31
2023-01-23T05:24:17.855Z,102260.47
2023-01-23T05:26:46.028Z,102270.59
2023-01-23T05:29:13.871Z,102230.00
2023-01-23T05:31:49.874Z,102276.31
2023-01-23T05:34:46.605Z,102263.88
2023-01-23T05:37:26.339Z,102281.53
2023-01-23T05:40:00.257Z,102283.56
2023-01-23T05:42:46.901Z,102282.44
2023-01-23T05:45:34.967Z,102285.25
2023-01-23T05:48:05.500Z,102278.69
2023-01-23T05:50:34.456Z,102273.09
2023-01-23T05:53:02.929Z,102289.66
2023-01-23T05:55:30.466Z,102289.72
2023-01-23T05:57:57.951Z,102306.63
2023-01-23T06:00:44.343Z,102314.28
2023-01-23T06:03:30.684Z,102317.97
2023-01-23T06:06:17.717Z,102306.66
2023-01-23T06:08:45.044Z,102313.91
2023-01-23T06:11:12.329Z,102315.53
2023-01-23T06:13:39.452Z,102328.91
2023-01-23T06:16:10.396Z,102328.91
2023-01-23T06:18:38.460Z,102324.06
2023-01-23T06:21:06.308Z,102332.94
2023-01-23T06:23:34.827Z,102319.66
2023-01-23T06:26:08.807Z,102332.53
2023-01-23T06:28:37.496Z,102342.25
2023-01-23T06:31:09.537Z,102357.56
2023-01-23T06:33:51.730Z,102349.03
2023-01-23T06:36:21.873Z,102364.38
2023-01-23T06:38:49.541Z,102361.16
2023-01-23T06:41:19.923Z,102370.88
2023-01-23T06:43:54.612Z,102368.84
2023-01-23T06:46:24.751Z,102335.03
2023-01-23T06:48:54.320Z,102310.84
2023-01-23T06:51:21.683Z,102366.06
2023-01-23T06:53:50.225Z,102360.78
2023-01-23T06:56:17.984Z,102380.56
2023-01-23T06:58:46.603Z,102353.56
2023-01-23T07:01:30.726Z,102376.16
2023-01-23T07:04:20.894Z,102383.78
2023-01-23T07:06:50.823Z,102369.69
2023-01-23T07:09:19.773Z,102408.41
2023-01-23T07:11:59.011Z,102401.13
2023-01-23T07:14:28.782Z,102395.09
2023-01-23T07:16:56.795Z,102396.28
2023-01-23T07:19:25.201Z,102405.16
2023-01-23T07:21:53.435Z,102401.13
2023-01-23T07:24:20.737Z,102406.78
2023-01-23T07:26:48.235Z,102392.28
2023-01-23T07:29:15.641Z,102410.41
2023-01-23T07:31:42.816Z,102401.16
2023-01-23T07:34:09.979Z,102418.50
2023-01-23T07:36:37.090Z,102424.53
2023-01-23T07:39:04.391Z,102418.88
2023-01-23T07:41:31.722Z,102416.47
2023-01-23T07:44:02.527Z,102431.41
2023-01-23T07:46:30.415Z,102427.34
2023-01-23T07:48:57.697Z,102434.22
2023-01-23T07:51:24.923Z,102428.59
2023-01-23T07:53:52.781Z,102425.75
2023-01-23T07:56:19.962Z,102433.00
2023-01-23T07:58:50.453Z,102442.28
2023-01-23T08:01:19.435Z,102447.94
2023-01-23T08:03:47.342Z,102449.16
2023-01-23T08:06:14.921Z,102445.50
2023-01-23T08:08:42.318Z,102433.81
2023-01-23T08:11:11.923Z,102445.13
2023-01-23T08:13:39.673Z,102440.66
2023-01-23T08:16:07.448Z,102442.28
2023-01-23T08:18:34.951Z,102452.38
2023-01-23T08:21:03.619Z,102438.25
2023-01-23T08:23:33.320Z,102450.75
2023-01-23T08:26:04.124Z,102445.94
2023-01-23T08:28:31.999Z,102454.38
2023-01-23T08:31:07.977Z,102460.03
2023-01-23T08:33:36.541Z,102468.09
2023-01-23T08:36:05.779Z,102475.34
2023-01-23T08:38:33.332Z,102471.31
2023-01-23T08:41:03.030Z,102452.75
2023-01-23T08:43:31.403Z,102469.31
2023-01-23T08:45:59.941Z,102464.06
2023-01-23T08:48:28.491Z,102458.00
2023-01-23T08:51:12.776Z,102448.75
2023-01-23T08:53:40.921Z,102460.84
2023-01-23T08:56:16.657Z,102474.56
2023-01-23T08:58:45.490Z,102458.81
2023-01-23T09:01:23.884Z,102479.38
2023-01-23T09:03:51.523Z,102487.44
2023-01-23T09:06:21.048Z,102488.25
2023-01-23T09:08:48.365Z,102481.41
2023-01-23T09:11:16.199Z,102481.41
2023-01-23T09:13:43.581Z,102502.78
2023-01-23T09:16:10.901Z,102496.31
2023-01-23T09:18:38.298Z,102494.69
2023-01-23T09:21:11.515Z,102468.88
2023-01-23T09:23:38.847Z,102489.47
2023-01-23T09:26:09.037Z,102485.81
2023-01-23T09:28:37.476Z,102491.06
2023-01-23T09:31:11.042Z,102482.19
2023-01-23T09:33:38.475Z,102492.28
2023-01-23T09:36:06.147Z,102472.91
2023-01-23T09:38:34.531Z,102487.03
2023-01-23T09:41:10.844Z,102499.53
2023-01-23T09:43:53.196Z,102496.31
2023-01-23T09:46:30.099Z,102490.66
2023-01-23T09:49:10.371Z,102489.84
2023-01-23T09:51:37.541Z,102488.66
2023-01-23T09:54:25.473Z,102481.78
2023-01-23T09:56:53.013Z,102481.00
2023-01-23T09:59:54.020Z,102479.38
2023-01-23T10:02:27.271Z,102474.91
2023-01-23T10:04:58.176Z,102467.66
2023-01-23T10:07:49.606Z,102470.91
2023-01-23T10:10:49.039Z,102452.69
2023-01-23T10:13:48.919Z,102472.88
2023-01-23T10:16:35.387Z,102463.97
2023-01-23T10:19:18.049Z,102467.63
2023-01-23T10:22:08.502Z,102475.25
2023-01-23T10:24:52.223Z,102457.53
2023-01-23T10:27:26.563Z,102474.47
2023-01-23T10:30:00.412Z,102468.03
2023-01-23T10:32:29.881Z,102480.13
2023-01-23T10:35:11.742Z,102476.13
2023-01-23T10:38:23.548Z,102480.97
2023-01-23T10:41:09.242Z,102472.09
2023-01-23T10:43:37.344Z,102480.16
2023-01-23T10:46:16.468Z,102480.97
2023-01-23T10:48:46.197Z,102472.09
2023-01-23T10:51:43.861Z,102479.75
2023-01-23T10:54:33.267Z,102473.69
2023-01-23T10:57:03.730Z,102477.72
2023-01-23T10:59:38.017Z,102484.16
2023-01-23T11:02:14.633Z,102477.28
2023-01-23T11:04:44.402Z,102471.63
2023-01-23T11:07:16.041Z,102469.22
2023-01-23T11:09:54.368Z,102461.59
2023-01-23T11:12:46.395Z,102454.31
2023-01-23T11:15:21.529Z,102472.88
2023-01-23T11:17:50.538Z,102466.44
2023-01-23T11:20:27.868Z,102474.50
2023-01-23T11:23:03.136Z,102465.63
2023-01-23T11:25:34.191Z,102474.50
2023-01-23T11:28:18.395Z,102465.63
2023-01-23T11:30:51.355Z,102466.78
2023-01-23T11:33:53.250Z,102475.25
2023-01-23T11:36:41.396Z,102467.16
2023-01-23T11:39:17.987Z,102479.22
2023-01-23T11:41:46.985Z,102458.63
2023-01-23T11:44:21.168Z,102474.81
2023-01-23T11:47:20.880Z,102431.59
2023-01-23T11:50:25.561Z,102478.81
2023-01-23T11:53:36.996Z,102458.19
2023-01-23T11:56:15.312Z,102487.25
2023-01-23T11:59:19.890Z,102478.44
2023-01-23T12:02:15.246Z,102480.44
2023-01-23T12:05:07.247Z,102493.78
2023-01-23T12:08:06.790Z,102490.09
2023-01-23T12:10:40.226Z,102484.84
2023-01-23T12:13:53.536Z,102483.25
2023-01-23T12:16:33.072Z,102485.69
2023-01-23T12:19:14.814Z,102495.38
2023-01-23T12:22:03.236Z,102488.91
2023-01-23T12:24:50.739Z,102487.69
2023-01-23T12:27:44.292Z,102497.38
2023-01-23T12:30:24.409Z,102503.00
2023-01-23T12:33:06.601Z,102486.44
2023-01-23T12:35:48.213Z,102509.06
2023-01-23T12:38:31.701Z,102477.63
2023-01-23T12:41:08.109Z,102513.94
2023-01-23T12:43:41.315Z,102518.75
2023-01-23T12:46:18.616Z,102518.34
2023-01-23T12:49:08.851Z,102529.97
2023-01-23T12:51:39.390Z,102537.66
2023-01-23T12:54:15.617Z,102511.41
2023-01-23T12:56:45.230Z,102514.59
2023-01-23T12:59:23.926Z,102528.38
2023-01-23T13:02:42.415Z,102529.19
2023-01-23T13:05:31.448Z,102528.25
2023-01-23T13:08:29.020Z,102535.53
2023-01-23T13:11:30.012Z,102535.97
2023-01-23T13:13:57.455Z,102538.78
2023-01-23T13:16:32.059Z,102529.91
2023-01-23T13:19:20.336Z,102556.50
2023-01-23T13:22:27.415Z,102554.50
2023-01-23T13:25:13.214Z,102559.00
2023-01-23T13:27:52.360Z,102540.81
2023-01-23T13:30:25.230Z,102550.91
2023-01-23T13:33:07.595Z,102563.78
2023-01-23T13:35:44.885Z,102567.81
2023-01-23T13:38:30.397Z,102567.81
2023-01-23T13:41:11.912Z,102567.38
2023-01-23T13:43:54.056Z,102579.06
2023-01-23T13:46:27.099Z,102573.50
2023-01-23T14:21:41.328Z,102596.66
2023-01-23T14:24:23.945Z,102603.09
2023-01-23T14:27:02.422Z,102603.94
2023-01-23T14:29:31.677Z,102603.00
2023-01-23T14:31:58.985Z,102621.69
2023-01-23T14:34:27.228Z,102616.31
2023-01-23T14:37:04.661Z,102617.91
2023-01-23T14:39:35.038Z,102620.72
2023-01-23T14:42:06.487Z,102619.91
2023-01-23T14:44:42.256Z,102628.88
2023-01-23T14:47:18.544Z,102628.03
2023-01-23T14:49:47.230Z,102637.63
2023-01-23T14:52:29.730Z,102629.38
2023-01-23T14:55:07.669Z,102633.88
2023-01-23T14:57:36.575Z,102637.13
2023-01-23T15:00:05.064Z,102633.47
2023-01-23T15:02:36.376Z,102631.16
2023-01-23T15:05:13.118Z,102642.84
2023-01-23T15:08:17.212Z,102633.53
2023-01-23T15:10:44.268Z,102630.31
2023-01-23T15:13:25.972Z,102635.94
2023-01-23T15:15:57.547Z,102650.44
2023-01-23T15:18:27.986Z,102652.72
2023-01-23T15:20:57.713Z,102652.00
2023-01-23T15:23:28.592Z,102657.91
2023-01-23T15:26:36.436Z,102659.91
2023-01-23T15:29:03.995Z,102658.97
2023-01-23T15:31:35.658Z,102665.50
2023-01-23T15:34:15.147Z,102669.91
2023-01-23T15:37:00.748Z,102669.09
2023-01-23T15:39:33.140Z,102684.41
2023-01-23T15:42:00.515Z,102688.91
2023-01-23T15:44:29.959Z,102682.16
2023-01-23T15:47:01.303Z,102686.13
2023-01-23T15:49:29.514Z,102696.09
2023-01-23T15:52:02.758Z,102688.84
2023-01-23T15:54:29.838Z,102699.75
2023-01-23T15:57:07.217Z,102707.38
2023-01-23T15:59:36.151Z,102703.34
2023-01-23T16:02:04.257Z,102700.16
2023-01-23T16:04:31.937Z,102688.75
2023-01-23T16:07:05.082Z,102716.56
2023-01-23T16:09:36.060Z,102720.91
2023-01-23T16:12:04.070Z,102726.50
2023-01-23T16:14:31.384Z,102733.69
2023-01-23T16:17:11.509Z,102723.59
2023-01-23T16:19:43.363Z,102726.28
2023-01-23T16:22:18.221Z,102740.75
2023-01-23T16:24:45.578Z,102741.59
2023-01-23T16:27:20.743Z,102744.06
2023-01-23T16:29:49.732Z,102738.47
2023-01-23T16:32:17.454Z,102747.34
2023-01-23T16:34:44.872Z,102749.06
2023-01-23T16:37:16.700Z,102748.31
2023-01-23T16:39:45.964Z,102758.47
2023-01-23T16:42:17.531Z,102738.78
2023-01-23T16:44:44.636Z,102745.69
2023-01-23T16:47:12.029Z,102757.03
2023-01-23T16:49:51.370Z,102756.16
2023-01-23T16:52:22.605Z,102754.13
2023-01-23T16:54:53.072Z,102759.75
2023-01-23T16:57:21.494Z,102747.22
2023-01-23T16:59:50.157Z,102773.09
2023-01-23T17:02:17.529Z,102775.16
2023-01-23T17:04:44.874Z,102760.19
2023-01-23T17:07:17.266Z,102786.00
2023-01-23T17:09:46.201Z,102785.66
2023-01-23T17:12:27.634Z,102779.22
2023-01-23T17:14:55.797Z,102782.28
2023-01-23T17:17:30.867Z,102784.09
2023-01-23T17:19:59.305Z,102784.44
2023-01-23T17:22:30.642Z,102782.50
2023-01-23T17:24:58.047Z,102796.19
2023-01-23T17:27:25.587Z,102784.06
2023-01-23T17:29:52.813Z,102792.72
2023-01-23T17:32:36.185Z,102792.72
2023-01-23T17:35:07.507Z,102789.22
2023-01-23T17:37:35.808Z,102802.19
2023-01-23T17:40:03.714Z,102800.34
2023-01-23T17:42:31.170Z,102802.03
2023-01-23T17:44:58.296Z,102808.09
2023-01-23T17:47:25.910Z,102807.72
2023-01-23T17:49:54.915Z,102792.06
2023-01-23T17:52:22.441Z,102804.03
2023-01-23T17:54:50.072Z,102793.91
2023-01-23T17:57:17.412Z,102813.25
2023-01-23T17:59:45.324Z,102781.66
2023-01-23T18:02:28.730Z,102805.16
2023-01-23T18:04:56.640Z,102807.47
2023-01-23T18:07:23.923Z,102819.78
2023-01-23T18:09:52.671Z,102818.34
2023-01-23T18:12:38.979Z,102803.38
2023-01-23T18:15:19.646Z,102767.38
2023-01-23T18:17:56.218Z,102810.94
2023-01-23T18:20:24.285Z,102814.75
2023-01-23T18:22:51.997Z,102797.28
2023-01-23T18:25:21.819Z,102796.78
2023-01-23T18:27:55.661Z,102819.44
2023-01-23T18:30:44.068Z,102821.81
2023-01-23T18:33:29.783Z,102829.09
2023-01-23T18:36:33.722Z,102816.91
2023-01-23T18:39:23.637Z,102825.84
2023-01-23T18:42:28.363Z,102826.47
2023-01-23T18:45:01.383Z,102828.47
2023-01-23T18:47:28.753Z,102817.63
2023-01-23T18:49:56.160Z,102830.13
2023-01-23T18:52:25.067Z,102831.72
2023-01-23T18:55:15.345Z,102839.44
2023-01-23T18:57:51.901Z,102841.88
2023-01-23T19:00:24.943Z,102848.00
2023-01-23T19:02:56.517Z,102845.56
2023-01-23T19:05:32.941Z,102847.44
2023-01-23T19:08:01.471Z,102856.28
2023-01-23T19:10:40.189Z,102858.13
2023-01-23T19:13:43.847Z,102855.41
2023-01-23T19:16:33.467Z,102841.59
2023-01-23T19:19:49.180Z,102856.47
2023-01-23T19:22:19.194Z,102844.84
2023-01-23T19:24:46.541Z,102839.69
2023-01-23T19:27:23.899Z,102866.50
2023-01-23T19:29:51.266Z,102864.94
2023-01-23T19:32:18.822Z,102859.19
2023-01-23T19:34:46.220Z,102872.88
2023-01-23T19:37:14.941Z,102845.25
2023-01-23T19:39:42.309Z,102869.94
2023-01-23T19:42:15.023Z,102850.81
2023-01-23T19:44:42.444Z,102871.75
2023-01-23T19:47:09.604Z,102857.88
2023-01-23T19:49:36.778Z,102850.03
2023-01-23T19:52:04.178Z,102859.44
2023-01-23T19:54:31.658Z,102864.06
2023-01-23T19:56:58.955Z,102864.06
2023-01-23T19:59:27.408Z,102871.31
2023-01-23T20:01:54.674Z,102876.50
2023-01-23T20:04:23.884Z,102869.91
2023-01-23T20:06:54.618Z,102878.44
2023-01-23T20:09:22.249Z,102886.03
2023-01-23T20:11:49.554Z,102880.63
2023-01-23T20:14:16.850Z,102880.75
2023-01-23T20:16:44.357Z,102875.63
2023-01-23T20:19:15.706Z,102886.69
2023-01-23T20:21:44.293Z,102888.34
2023-01-23T20:24:12.217Z,102881.47
2023-01-23T20:26:40.344Z,102905.50
2023-01-23T20:29:11.743Z,102899.38
2023-01-23T20:31:39.256Z,102897.56
2023-01-23T20:34:07.482Z,102899.13
2023-01-23T20:36:34.734Z,102879.69
2023-01-23T20:39:02.034Z,102896.84
2023-01-23T20:41:29.191Z,102907.69
2023-01-23T20:43:56.780Z,102900.16
2023-01-23T20:46:24.083Z,102904.09
2023-01-23T20:48:51.349Z,102908.81
2023-01-23T20:51:18.982Z,102927.94
2023-01-23T20:53:46.306Z,102915.03
2023-01-23T20:56:19.479Z,102924.41
2023-01-23T20:59:08.580Z,102923.31
2023-01-23T21:01:56.835Z,102916.28
2023-01-23T21:04:26.774Z,102932.69
2023-01-23T21:06:54.553Z,102933.66
2023-01-23T21:09:21.884Z,102927.00
2023-01-23T21:11:51.127Z,102934.53
2023-01-23T21:14:19.107Z,102943.78
2023-01-23T21:16:46.734Z,102942.94
2023-01-23T21:19:14.796Z,102940.22
2023-01-23T21:21:42.298Z,102940.81
2023-01-23T21:24:09.648Z,102946.38
2023-01-23T21:26:37.423Z,102950.72
2023-01-23T21:29:06.050Z,102947.91
2023-01-23T21:31:36.069Z,102939.50
2023-01-23T21:34:06.520Z,102944.09
2023-01-23T21:36:34.113Z,102952.06
2023-01-23T21:39:01.346Z,102951.75
2023-01-23T21:41:28.656Z,102945.69
2023-01-23T21:43:55.836Z,102951.63
2023-01-23T21:46:23.548Z,102963.13
2023-01-23T21:48:52.331Z,102955.72
2023-01-23T21:51:21.881Z,102956.28
2023-01-23T21:53:51.257Z,102953.94
2023-01-23T21:56:20.955Z,102961.03
2023-01-23T21:58:49.194Z,102962.94
2023-01-23T22:01:32.676Z,102960.31
2023-01-23T22:04:14.815Z,102960.44
2023-01-23T22:06:43.516Z,102953.78
2023-01-23T22:09:15.546Z,102953.88
2023-01-23T22:11:43.450Z,102956.03
2023-01-23T22:14:10.857Z,102970.31
2023-01-23T22:16:48.542Z,102958.19
2023-01-23T22:19:19.475Z,102958.09
2023-01-23T22:21:47.110Z,102956.94
2023-01-23T22:24:15.275Z,102970.53
2023-01-23T22:26:43.469Z,102962.91
2023-01-23T22:29:15.274Z,102934.41
2023-01-23T22:31:43.278Z,102949.56
2023-01-23T22:34:31.113Z,102965.19
2023-01-23T22:36:58.236Z,102953.94
2023-01-23T22:39:25.750Z,102951.59
2023-01-23T22:41:53.357Z,102936.19
2023-01-23T22:44:20.736Z,102953.78
2023-01-23T22:46:51.708Z,102954.50
2023-01-23T22:49:19.035Z,102952.09
2023-01-23T22:51:46.330Z,102938.16
2023-01-23T22:54:15.293Z,102949.78
2023-01-23T22:56:44.248Z,102952.16
2023-01-23T22:59:11.474Z,102957.69
2023-01-23T23:01:38.835Z,102936.56
2023-01-23T23:04:06.342Z,102968.44
2023-01-23T23:06:33.551Z,102969.88
2023-01-23T23:09:00.790Z,102969.31
2023-01-23T23:11:29.273Z,102972.69
2023-01-23T23:13:57.189Z,102973.03
2023-01-23T23:16:27.254Z,102982.00
2023-01-23T23:18:56.561Z,102977.72
2023-01-23T23:21:26.194Z,102966.81
2023-01-23T23:23:57.333Z,102975.13
2023-01-23T23:26:26.564Z,102983.03
2023-01-23T23:28:55.090Z,102972.56
2023-01-23T23:31:22.502Z,102966.25
2023-01-23T23:33:50.037Z,102970.47
2023-01-23T23:36:17.785Z,102965.78
2023-01-23T23:38:44.881Z,102919.72
2023-01-23T23:41:14.172Z,102970.28
2023-01-23T23:43:41.620Z,102972.25
2023-01-23T23:46:09.988Z,102970.44
2023-01-23T23:48:38.693Z,102966.75
2023-01-23T23:51:08.170Z,102951.88
2023-01-23T23:53:36.353Z,102961.91
2023-01-23T23:56:04.876Z,102962.22
2023-01-23T23:58:32.856Z,102975.50
